Time;durP1;ratioP1;P1;durP2;ratioP2;P2;SDS_P1;SDS_P2;PMS_P1;PMS_P2;Temp;Humidity;BMP_temperature;BMP_pressure;BME280_temperature;BME280_humidity;BME280_pressure;Samples;Min_cycle;Max_cycle;Signal;HPM_P1;HPM_P2
2022/09/13 00:03:38;;;;;;;33.20;6.53;;;;;;;20.84;94.66;99088.19;10134562;29;20046;-68
2022/09/13 00:08:40;;;;;;;26.05;5.05;;;;;;;20.83;94.58;99108.19;10134339;29;20052;-69
2022/09/13 00:13:41;;;;;;;29.42;6.30;;;;;;;20.80;94.45;99065.53;10133531;29;20169;-70
2022/09/13 00:18:42;;;;;;;27.38;5.65;;;;;;;20.75;94.69;99058.22;10134530;29;20169;-68
2022/09/13 00:23:44;;;;;;;34.17;6.40;;;;;;;20.71;95.04;99064.44;10133692;29;20055;-68
2022/09/13 00:28:50;;;;;;;32.22;5.57;;;;;;;20.52;95.25;99035.25;10134725;29;20048;-68
2022/09/13 00:33:51;;;;;;;30.27;5.30;;;;;;;20.67;94.08;99060.63;10133952;29;20401;-69
2022/09/13 00:38:52;;;;;;;38.40;6.45;;;;;;;20.75;93.52;99062.81;10133320;29;20045;-68
2022/09/13 00:43:55;;;;;;;29.83;5.93;;;;;;;20.71;93.26;99067.94;10133251;29;20059;-69
2022/09/13 00:49:12;;;;;;;33.47;6.80;;;;;;;20.78;92.89;99083.06;10133693;29;20040;-68
2022/09/13 00:54:16;;;;;;;35.85;6.57;;;;;;;20.79;92.60;99090.91;10133663;29;20048;-68
2022/09/13 00:59:22;;;;;;;;;;;;;;;20.95;91.68;99095.25;10134679;29;20433;-68
2022/09/13 01:04:27;;;;;;;28.30;5.85;;;;;;;20.81;91.67;99088.72;10133003;29;19926;-68
2022/09/13 01:09:32;;;;;;;31.67;6.78;;;;;;;20.82;91.34;99081.44;10133008;29;20052;-68
2022/09/13 01:14:33;;;;;;;26.67;5.22;;;;;;;20.49;91.28;99034.91;10134050;29;20064;-68
2022/09/13 01:19:35;;;;;;;24.52;5.32;;;;;;;20.83;90.70;99078.50;10133273;29;20063;-68
2022/09/13 01:24:42;;;;;;;24.42;5.03;;;;;;;20.82;90.76;99095.78;10133208;29;20052;-68
2022/09/13 01:30:09;;;;;;;24.98;4.60;;;;;;;20.84;90.60;99096.31;10133071;29;20039;-68
2022/09/13 01:35:22;;;;;;;28.77;5.68;;;;;;;20.77;90.25;99084.16;10131352;29;20092;-68
2022/09/13 01:41:00;;;;;;;37.33;6.60;;;;;;;20.65;90.55;99066.28;10132333;29;20052;-68
2022/09/13 01:46:12;;;;;;;26.30;5.18;;;;;;;20.02;91.14;99009.66;10132916;29;20445;-68
2022/09/13 01:51:27;;;;;;;33.90;4.93;;;;;;;20.34;92.11;99088.78;10132811;29;20465;-68
2022/09/13 01:56:37;;;;;;;20.52;4.40;;;;;;;20.31;92.07;99098.22;10139252;29;20139;-68
2022/09/13 02:01:44;;;;;;;34.80;5.65;;;;;;;19.39;91.98;98947.59;10138207;29;20461;-68
2022/09/13 02:07:01;;;;;;;30.75;4.60;;;;;;;20.08;92.58;99053.63;10138917;29;20052;-68
2022/09/13 02:12:24;;;;;;;33.70;4.57;;;;;;;20.11;93.96;99066.59;10139155;29;20053;-69
2022/09/13 02:17:28;;;;;;;23.47;4.37;;;;;;;20.06;93.00;99063.84;10139710;29;20052;-68
2022/09/13 02:22:38;;;;;;;23.63;5.65;;;;;;;19.95;93.60;99051.38;10137090;29;20079;-68
2022/09/13 02:27:40;;;;;;;36.00;5.93;;;;;;;19.97;93.01;99058.13;10137346;29;20068;-68
2022/09/13 02:32:59;;;;;;;28.67;5.20;;;;;;;20.10;94.81;99108.06;10138600;29;20052;-68
2022/09/13 02:38:22;;;;;;;23.20;5.05;;;;;;;20.10;93.93;99132.34;10137435;29;20080;-68
2022/09/13 02:43:31;;;;;;;24.63;5.43;;;;;;;20.11;94.58;99125.09;10137101;29;20425;-68
2022/09/13 02:48:58;;;;;;;43.20;6.15;;;;;;;19.69;94.54;99058.50;10137883;29;20406;-68
2022/09/13 02:54:36;;;;;;;26.95;4.95;;;;;;;20.30;95.23;99191.78;10136714;29;20131;-68
2022/09/13 02:59:36;;;;;;;22.40;5.45;;;;;;;20.27;93.03;99205.00;10120971;29;20074;-68
2022/09/13 03:04:37;;;;;;;22.73;4.80;;;;;;;19.71;93.06;99123.72;10135880;29;20139;-68
2022/09/13 03:09:49;;;;;;;34.83;5.60;;;;;;;20.24;94.09;99210.91;10134952;29;20053;-68
2022/09/13 03:15:13;;;;;;;31.45;5.68;;;;;;;20.26;94.21;99235.75;10137064;29;20508;-68
2022/09/13 03:20:23;;;;;;;30.90;5.43;;;;;;;20.18;93.16;99247.81;10134755;29;20045;-69
2022/09/13 03:25:36;;;;;;;18.58;4.35;;;;;;;20.19;92.52;99272.88;10131777;29;20160;-69
2022/09/13 03:30:46;;;;;;;27.07;4.53;;;;;;;19.70;92.43;99194.84;10135984;29;20054;-70
2022/09/13 03:35:56;;;;;;;20.80;4.03;;;;;;;20.28;92.05;99264.09;10135985;29;20049;-70
2022/09/13 03:41:08;;;;;;;27.15;4.47;;;;;;;20.31;91.90;99233.06;10135655;29;20413;-70
2022/09/13 03:46:14;;;;;;;45.50;5.18;;;;;;;20.25;90.96;99215.22;10136742;29;20508;-69
2022/09/13 03:51:15;;;;;;;39.95;9.57;;;;;;;20.30;90.28;99197.19;10133947;29;20048;-70
2022/09/13 03:56:19;;;;;;;34.28;6.15;;;;;;;20.60;89.97;99217.38;10122480;29;20064;-72
2022/09/13 04:01:22;;;;;;;31.40;5.05;;;;;;;20.66;89.77;99199.31;10134669;29;20051;-70
2022/09/13 04:06:23;;;;;;;45.13;5.65;;;;;;;20.61;89.78;99178.53;10135155;29;20052;-72
2022/09/13 04:11:24;;;;;;;36.55;6.25;;;;;;;20.59;90.00;99160.97;10135737;29;20152;-72
2022/09/13 04:16:24;;;;;;;71.95;7.72;;;;;;;20.67;89.81;99192.84;10133141;29;20547;-72
2022/09/13 04:21:25;;;;;;;32.42;5.43;;;;;;;20.92;88.50;99174.06;10133084;29;20055;-72
2022/09/13 04:26:26;;;;;;;27.95;4.60;;;;;;;21.13;86.73;99168.75;10134466;29;20044;-71
2022/09/13 04:31:27;;;;;;;46.33;5.15;;;;;;;21.53;85.15;99192.34;10133381;29;20064;-72
2022/09/13 04:36:28;;;;;;;34.30;5.72;;;;;;;21.76;84.43;99191.03;10132381;29;20040;-71
2022/09/13 04:41:30;;;;;;;28.00;4.43;;;;;;;21.73;83.76;99202.38;10132819;29;20056;-71
2022/09/13 04:46:31;;;;;;;30.27;5.90;;;;;;;21.65;84.37;99246.16;10133723;29;20044;-71
2022/09/13 04:51:32;;;;;;;26.98;4.70;;;;;;;21.47;84.39;99233.94;10133733;29;20036;-69
2022/09/13 04:56:33;;;;;;;35.22;7.00;;;;;;;21.52;84.31;99262.88;10134274;29;20049;-70
2022/09/13 05:01:34;;;;;;;39.13;8.57;;;;;;;21.57;84.46;99306.16;10133057;29;20074;-69
2022/09/13 05:06:35;;;;;;;41.55;7.32;;;;;;;21.48;84.48;99313.94;10132902;29;20131;-71
2022/09/13 05:11:35;;;;;;;25.38;5.60;;;;;;;21.49;84.22;99301.25;10133623;29;20036;-71
2022/09/13 05:16:36;;;;;;;28.15;5.32;;;;;;;21.64;84.05;99320.22;10132474;29;20044;-70
2022/09/13 05:21:37;;;;;;;37.45;5.45;;;;;;;21.71;83.99;99301.03;10133947;29;20451;-70
2022/09/13 05:26:38;;;;;;;29.27;5.03;;;;;;;21.38;83.57;99262.56;10132981;29;20044;-70
2022/09/13 05:31:40;;;;;;;31.88;5.55;;;;;;;21.75;83.31;99357.00;10140131;29;20033;-70
2022/09/13 05:36:41;;;;;;;24.73;4.85;;;;;;;21.64;83.10;99374.25;10140711;29;20439;-70
2022/09/13 05:41:42;;;;;;;21.88;3.90;;;;;;;21.57;83.22;99393.44;10140577;29;20096;-70
2022/09/13 05:46:47;;;;;;;32.28;4.32;;;;;;;21.58;82.76;99402.34;10140145;29;20115;-70
2022/09/13 05:51:47;;;;;;;19.23;4.03;;;;;;;21.54;82.62;99380.44;10140419;29;20381;-68
2022/09/13 05:56:51;;;;;;;17.15;4.10;;;;;;;21.63;82.23;99375.34;10140759;29;20041;-70
2022/09/13 06:01:52;;;;;;;39.85;4.75;;;;;;;21.37;81.79;99326.59;10139722;29;20127;-70
2022/09/13 06:06:52;;;;;;;24.75;4.00;;;;;;;21.89;81.35;99424.91;10140346;29;20123;-70
2022/09/13 06:11:53;;;;;;;28.23;4.88;;;;;;;21.98;81.14;99411.69;10139799;29;20407;-70
2022/09/13 06:16:54;;;;;;;27.05;4.32;;;;;;;21.71;80.36;99330.75;10139522;29;20473;-70
2022/09/13 06:21:55;;;;;;;23.38;4.05;;;;;;;22.02;80.23;99374.94;10138808;29;20044;-70
2022/09/13 06:26:56;;;;;;;29.90;5.63;;;;;;;22.07;80.52;99391.16;10139058;29;20044;-69
2022/09/13 06:31:57;;;;;;;37.40;6.00;;;;;;;21.47;81.07;99319.59;10138985;29;20115;-69
2022/09/13 06:36:58;;;;;;;26.58;4.50;;;;;;;22.01;81.56;99443.59;10138157;29;20060;-71
2022/09/13 06:41:59;;;;;;;46.13;6.10;;;;;;;21.96;81.75;99428.19;10137967;29;20039;-70
2022/09/13 06:47:00;;;;;;;30.67;5.57;;;;;;;21.23;82.15;99346.22;10137707;29;20063;-70
2022/09/13 06:52:01;;;;;;;24.73;5.28;;;;;;;21.84;82.27;99431.09;10137648;29;20040;-69
2022/09/13 06:57:02;;;;;;;52.60;6.07;;;;;;;21.53;82.65;99368.00;10137337;29;20096;-71
2022/09/13 07:02:03;;;;;;;26.52;4.88;;;;;;;21.84;82.88;99414.88;10138276;29;20076;-71
2022/09/13 07:07:03;;;;;;;30.00;5.70;;;;;;;21.82;83.28;99417.03;10137117;29;20064;-70
2022/09/13 07:12:06;;;;;;;21.23;4.63;;;;;;;21.31;83.91;99345.72;10137347;29;20083;-70
2022/09/13 07:17:06;;;;;;;26.80;4.40;;;;;;;21.83;83.62;99372.69;10137098;29;20362;-69
2022/09/13 07:22:07;;;;;;;46.20;5.65;;;;;;;21.86;83.73;99339.72;10136003;29;20048;-70
2022/09/13 07:27:08;;;;;;;35.25;6.13;;;;;;;21.79;82.87;99279.69;10137427;29;20032;-72
2022/09/13 07:32:09;;;;;;;24.77;5.20;;;;;;;21.84;83.67;99305.94;10136042;29;20481;-72
2022/09/13 07:37:09;;;;;;;24.67;3.88;;;;;;;22.08;83.33;99350.31;10136494;29;20060;-72
2022/09/13 07:42:10;;;;;;;27.92;4.70;;;;;;;22.22;83.30;99355.22;10136417;29;20124;-72
2022/09/13 07:47:11;;;;;;;24.80;4.53;;;;;;;22.61;82.93;99370.94;10135225;29;20438;-71
2022/09/13 07:52:12;;;;;;;26.25;4.85;;;;;;;22.84;81.42;99331.69;10135648;29;20044;-70
2022/09/13 07:57:13;;;;;;;21.05;4.57;;;;;;;23.58;79.22;99398.72;10135743;29;20127;-69
2022/09/13 08:02:16;;;;;;;25.20;4.55;;;;;;;23.71;77.45;99391.09;10135363;29;20545;-70
2022/09/13 08:07:17;;;;;;;14.63;4.05;;;;;;;23.77;76.04;99363.66;10134090;29;20064;-69
2022/09/13 08:12:18;;;;;;;23.77;4.28;;;;;;;23.72;75.04;99357.47;10135121;29;20473;-70
2022/09/13 08:17:19;;;;;;;29.17;4.63;;;;;;;23.89;74.54;99360.63;10134518;29;20052;-71
2022/09/13 08:22:20;;;;;;;20.85;3.60;;;;;;;23.93;72.57;99380.66;10134622;29;20028;-71
2022/09/13 08:27:20;;;;;;;13.32;3.38;;;;;;;23.86;70.72;99382.88;10134693;29;20385;-71
2022/09/13 08:32:21;;;;;;;14.77;3.00;;;;;;;23.91;70.13;99407.28;10133355;29;20618;-69
2022/09/13 08:37:22;;;;;;;20.23;4.07;;;;;;;23.98;69.35;99360.84;10133811;29;20096;-71
2022/09/13 08:42:44;;;;;;;16.05;3.17;;;;;;;24.71;66.13;99392.66;10134377;29;20497;-69
2022/09/13 08:48:09;;;;;;;52.60;5.22;;;;;;;25.35;63.98;99390.72;10134744;29;20099;-70
2022/09/13 08:53:28;;;;;;;11.40;2.88;;;;;;;25.53;62.60;99395.41;10133000;29;20032;-71
2022/09/13 08:58:42;;;;;;;10.38;2.25;;;;;;;25.19;60.81;99404.47;10133960;29;20037;-68
2022/09/13 09:03:48;;;;;;;14.35;2.50;;;;;;;24.89;62.03;99394.69;10135723;29;20486;-71
2022/09/13 09:08:59;;;;;;;9.80;1.98;;;;;;;24.75;60.74;99399.16;10141381;29;20044;-70
2022/09/13 09:14:37;;;;;;;17.42;2.92;;;;;;;25.09;59.92;99354.81;10141956;29;20056;-70
2022/09/13 09:19:45;;;;;;;16.50;3.63;;;;;;;24.87;60.12;99356.13;10142138;29;20037;-70
2022/09/13 09:24:53;;;;;;;9.40;2.85;;;;;;;24.85;60.80;99423.50;10140811;29;20051;-70
2022/09/13 09:29:58;;;;;;;74.60;41.95;;;;;;;24.62;62.05;99444.06;10141182;29;20085;-70
2022/09/13 09:35:18;;;;;;;18.75;6.38;;;;;;;24.35;63.29;99458.88;10139410;29;20036;-69
2022/09/13 09:40:19;;;;;;;11.93;4.22;;;;;;;24.17;63.94;99464.09;10140300;29;20043;-70
2022/09/13 09:45:29;;;;;;;33.58;17.92;;;;;;;24.14;63.82;99454.63;10140930;29;20037;-71
2022/09/13 09:50:37;;;;;;;12.00;3.97;;;;;;;24.25;63.52;99452.69;10140036;29;20103;-72
2022/09/13 09:56:05;;;;;;;17.98;8.88;;;;;;;24.83;62.05;99420.28;10139456;29;20469;-71
2022/09/13 10:01:17;;;;;;;202.38;108.03;;;;;;;24.52;59.62;99359.97;10140443;29;20048;-72
2022/09/13 10:06:21;;;;;;;138.60;73.65;;;;;;;24.74;59.61;99425.50;10139464;29;20040;-72
2022/09/13 10:11:26;;;;;;;16.30;8.20;;;;;;;24.48;60.89;99424.06;10139646;29;20033;-70
2022/09/13 10:16:30;;;;;;;13.38;5.22;;;;;;;24.18;61.06;99430.47;10139906;29;20056;-70
2022/09/13 10:21:31;;;;;;;6.10;2.85;;;;;;;23.96;61.79;99422.69;10139077;29;20040;-70
2022/09/13 10:26:33;;;;;;;8.35;3.20;;;;;;;23.61;61.72;99362.91;10139734;29;20421;-71
2022/09/13 10:31:40;;;;;;;25.65;10.95;;;;;;;24.13;61.63;99434.00;10138503;29;20033;-72
2022/09/13 10:36:59;;;;;;;33.17;11.98;;;;;;;24.30;61.35;99439.88;10139740;29;20036;-69
2022/09/13 10:42:04;;;;;;;12.90;4.70;;;;;;;24.54;61.63;99469.91;10138625;29;20462;-70
2022/09/13 10:47:12;;;;;;;6.00;1.90;;;;;;;24.23;61.60;99427.72;10137452;29;20477;-69
2022/09/13 10:52:30;;;;;;;6.50;2.85;;;;;;;24.59;61.53;99486.16;10138812;29;20037;-70
2022/09/13 10:57:34;;;;;;;4.47;1.92;;;;;;;24.13;61.81;99451.09;10136943;29;20037;-69
2022/09/13 11:02:41;;;;;;;3.30;1.60;;;;;;;24.28;62.19;99485.50;10137297;29;20443;-70
2022/09/13 11:08:05;;;;;;;4.43;2.10;;;;;;;24.30;62.67;99471.66;10137660;29;20071;-69
2022/09/13 11:13:19;;;;;;;8.07;4.00;;;;;;;24.06;61.95;99415.34;10137446;29;20072;-71
2022/09/13 11:18:37;;;;;;;5.82;1.60;;;;;;;24.31;61.88;99465.94;10137300;29;20044;-69
2022/09/13 11:24:03;;;;;;;4.22;1.70;;;;;;;24.27;62.34;99474.94;10137187;29;20505;-69
2022/09/13 11:29:28;;;;;;;2.63;1.58;;;;;;;23.69;62.38;99404.88;10135804;29;20044;-70
2022/09/13 11:34:35;;;;;;;6.25;1.77;;;;;;;23.95;62.76;99469.91;10135281;29;20041;-69
2022/09/13 11:40:14;;;;;;;5.35;1.90;;;;;;;23.91;63.26;99458.81;10136440;29;20040;-69
2022/09/13 11:45:23;;;;;;;11.85;3.63;;;;;;;23.86;62.64;99434.41;10136822;29;20044;-69
2022/09/13 11:50:42;;;;;;;6.32;2.53;;;;;;;23.76;62.22;99397.31;10134735;29;20032;-69
2022/09/13 11:55:49;;;;;;;7.80;2.40;;;;;;;24.23;61.66;99469.25;10135949;29;20048;-71
2022/09/13 12:00:59;;;;;;;97.22;12.02;;;;;;;24.23;62.36;99444.00;10114890;29;20164;-69
2022/09/13 12:06:40;;;;;;;23.45;7.25;;;;;;;24.45;61.83;99436.31;10136404;29;20485;-68
2022/09/13 12:11:56;;;;;;;17.45;6.10;;;;;;;24.13;61.36;99404.16;10133845;29;20048;-68
2022/09/13 12:17:06;;;;;;;8.02;2.70;;;;;;;24.36;61.54;99454.25;10134216;29;20051;-68
2022/09/13 12:22:08;;;;;;;6.07;2.42;;;;;;;24.22;62.12;99459.47;10134162;29;20048;-68
2022/09/13 12:27:41;;;;;;;16.10;8.90;;;;;;;24.12;62.65;99465.78;10133356;29;20505;-69
2022/09/13 12:32:45;;;;;;;14.48;7.00;;;;;;;23.76;63.30;99461.59;10123442;29;20055;-69
2022/09/13 12:38:25;;;;;;;5.28;2.95;;;;;;;23.80;63.70;99471.59;10130592;29;20048;-70
2022/09/13 12:43:32;;;;;;;15.27;8.30;;;;;;;23.61;64.41;99465.94;10094035;29;20048;-69
2022/09/13 12:48:53;;;;;;;7.25;3.55;;;;;;;23.44;65.74;99496.03;10109544;29;20139;-68
2022/09/13 12:54:20;;;;;;;5.03;2.92;;;;;;;23.24;69.12;99479.81;10133955;29;20032;-68
2022/09/13 12:59:47;;;;;;;4.78;2.20;;;;;;;23.24;70.55;99502.31;10133384;29;20036;-69
2022/09/13 13:04:54;;;;;;;6.95;2.53;;;;;;;23.19;71.19;99507.75;10129543;29;20064;-70
2022/09/13 13:09:56;;;;;;;4.00;2.22;;;;;;;23.19;69.81;99507.75;10124616;29;20056;-71
2022/09/13 13:14:59;;;;;;;3.38;2.15;;;;;;;23.36;68.79;99503.91;10117180;29;20061;-69
2022/09/13 13:20:39;;;;;;;5.45;2.40;;;;;;;23.60;68.17;99510.41;10117118;29;20083;-71
2022/09/13 13:25:56;;;;;;;6.25;2.50;;;;;;;23.64;67.78;99513.38;10132267;29;20448;-71
2022/09/13 13:30:58;;;;;;;14.88;3.08;;;;;;;23.45;66.97;99529.38;10118439;29;20052;-69
2022/09/13 13:36:30;;;;;;;7.70;3.22;;;;;;;23.43;66.88;99523.44;10113547;29;20527;-70
2022/09/13 13:41:40;;;;;;;5.13;2.90;;;;;;;23.29;66.60;99531.28;10132498;29;20139;-69
2022/09/13 13:46:41;;;;;;;6.03;2.80;;;;;;;22.96;67.02;99506.38;10131699;29;20033;-70
2022/09/13 13:51:42;;;;;;;5.50;2.88;;;;;;;23.08;67.24;99535.09;10137268;29;20055;-69
2022/09/13 13:56:48;;;;;;;5.45;2.80;;;;;;;22.53;67.80;99438.09;10136606;29;20398;-70
2022/09/13 14:01:54;;;;;;;8.85;3.60;;;;;;;22.90;67.72;99504.72;10131039;29;20097;-70
2022/09/13 14:07:04;;;;;;;5.00;2.75;;;;;;;22.92;68.81;99545.09;10136466;29;20048;-70
2022/09/13 14:12:16;;;;;;;4.40;3.28;;;;;;;22.78;69.15;99532.03;10138771;29;20088;-70
2022/09/13 14:17:48;;;;;;;7.68;4.35;;;;;;;22.68;70.07;99537.44;10138276;29;20565;-68
2022/09/13 14:22:49;;;;;;;7.55;3.80;;;;;;;22.47;69.38;99519.53;10099687;29;20067;-70
2022/09/13 14:28:01;;;;;;;7.25;2.83;;;;;;;22.49;70.79;99533.59;10099605;29;20047;-69
2022/09/13 14:33:04;;;;;;;6.10;3.05;;;;;;;22.13;70.36;99506.38;10099460;29;20516;-69
2022/09/13 14:38:29;;;;;;;36.08;5.32;;;;;;;22.33;71.68;99548.97;10099945;29;20045;-70
2022/09/13 14:43:30;;;;;;;3.95;2.45;;;;;;;21.65;71.45;99489.38;10092129;29;20040;-70
2022/09/13 14:48:47;;;;;;;5.65;3.13;;;;;;;21.99;72.70;99556.66;10129316;29;20052;-71
2022/09/13 14:53:53;;;;;;;7.53;3.13;;;;;;;22.00;72.43;99585.31;10131593;29;20060;-71
2022/09/13 14:58:57;;;;;;;43.75;6.55;;;;;;;21.92;73.29;99602.00;10131429;29;20051;-71
2022/09/13 15:04:00;;;;;;;9.55;3.38;;;;;;;21.94;72.91;99611.50;10129749;29;20048;-70
2022/09/13 15:09:09;;;;;;;31.23;4.45;;;;;;;21.96;73.86;99628.28;10128214;29;20072;-68
2022/09/13 15:14:34;;;;;;;9.90;3.60;;;;;;;21.97;74.27;99627.22;10096402;29;20430;-68
2022/09/13 15:19:38;;;;;;;11.38;3.40;;;;;;;21.89;74.13;99641.19;10097710;29;20625;-69
2022/09/13 15:25:01;;;;;;;8.95;3.22;;;;;;;21.88;79.51;99655.81;10115620;29;20050;-69
2022/09/13 15:30:04;;;;;;;8.38;3.42;;;;;;;21.09;79.80;99540.28;10135937;29;20096;-71
2022/09/13 15:35:29;;;;;;;8.27;4.15;;;;;;;21.40;88.24;99612.44;10136592;29;20068;-71
2022/09/13 15:40:42;;;;;;;8.43;4.95;;;;;;;21.09;91.71;99614.03;10135115;29;20044;-72
2022/09/13 15:45:43;;;;;;;13.48;5.05;;;;;;;20.83;86.91;99622.94;10128188;29;20048;-73
2022/09/13 15:51:07;;;;;;;8.63;6.28;;;;;;;20.75;93.81;99654.69;10128819;29;20045;-73
2022/09/13 15:56:13;;;;;;;10.10;6.47;;;;;;;20.33;94.03;99629.28;10128976;29;20056;-71
2022/09/13 16:01:15;;;;;;;8.77;7.20;;;;;;;20.19;92.43;99618.88;10129947;29;20044;-71
2022/09/13 16:06:16;;;;;;;8.18;7.32;;;;;;;20.01;92.70;99576.84;10134989;29;20048;-72
2022/09/13 16:11:16;;;;;;;12.82;9.48;;;;;;;19.95;93.49;99629.06;10127206;29;20052;-69
2022/09/13 16:16:17;;;;;;;15.57;11.35;;;;;;;19.92;94.34;99624.13;10126703;29;20506;-69
2022/09/13 16:21:18;;;;;;;12.95;8.95;;;;;;;19.89;95.60;99618.41;10131637;29;20044;-69
2022/09/13 16:26:19;;;;;;;9.10;7.32;;;;;;;19.71;96.77;99597.94;10129406;29;20050;-69
2022/09/13 16:31:20;;;;;;;7.88;6.53;;;;;;;19.75;97.04;99613.38;10131508;29;20045;-74
2022/09/13 16:36:20;;;;;;;16.88;9.45;;;;;;;19.79;96.79;99605.63;10132628;29;20528;-72
2022/09/13 16:41:22;;;;;;;10.35;9.13;;;;;;;19.38;96.98;99534.91;10133609;29;20044;-70
2022/09/13 16:46:22;;;;;;;14.07;10.50;;;;;;;19.57;98.34;99613.59;10126120;29;20045;-71
2022/09/13 16:51:24;;;;;;;16.50;8.73;;;;;;;19.53;99.21;99680.63;10113939;29;20084;-71
2022/09/13 16:56:25;;;;;;;9.57;7.43;;;;;;;19.29;100.00;99652.97;10122991;29;20044;-74
2022/09/13 17:01:28;;;;;;;10.18;7.15;;;;;;;19.37;100.00;99668.75;10117041;29;20103;-73
2022/09/13 17:06:29;;;;;;;12.88;8.18;;;;;;;18.85;100.00;99598.06;10108926;29;20089;-72
2022/09/13 17:11:33;;;;;;;10.75;7.32;;;;;;;19.27;100.00;99695.50;10108665;29;20041;-70
2022/09/13 17:16:37;;;;;;;12.02;7.50;;;;;;;19.18;100.00;99680.78;10113567;29;20139;-73
2022/09/13 17:21:38;;;;;;;12.85;8.43;;;;;;;19.11;100.00;99654.00;10117204;29;20053;-71
2022/09/13 17:26:43;;;;;;;12.52;8.77;;;;;;;18.99;100.00;99661.31;10106621;29;20495;-73
2022/09/13 17:31:44;;;;;;;11.60;9.43;;;;;;;18.83;100.00;99664.75;10122624;29;20045;-70
2022/09/13 17:36:45;;;;;;;12.07;9.88;;;;;;;18.86;100.00;99675.88;10117352;29;20048;-73
2022/09/13 17:41:47;;;;;;;12.00;8.90;;;;;;;18.77;100.00;99677.28;10127817;29;20088;-69
2022/09/13 17:46:48;;;;;;;13.07;9.68;;;;;;;18.81;100.00;99666.88;10138595;29;20052;-69
2022/09/13 17:51:49;;;;;;;14.57;11.50;;;;;;;18.64;100.00;99661.41;10140136;29;20067;-70
2022/09/13 17:56:49;;;;;;;20.42;11.60;;;;;;;18.69;100.00;99701.84;10139728;29;20123;-70
2022/09/13 18:01:52;;;;;;;16.75;11.80;;;;;;;18.55;100.00;99700.47;10140032;29;20466;-69
2022/09/13 18:06:54;;;;;;;24.73;13.57;;;;;;;18.39;100.00;99686.66;10139937;29;20104;-69
2022/09/13 18:11:55;;;;;;;16.48;12.35;;;;;;;18.18;100.00;99665.75;10128536;29;20104;-69
2022/09/13 18:16:56;;;;;;;20.83;13.40;;;;;;;18.38;100.00;99706.56;10114469;29;20064;-68
2022/09/13 18:22:00;;;;;;;19.45;13.43;;;;;;;18.27;100.00;99683.19;10118859;29;20135;-68
2022/09/13 18:27:02;;;;;;;12.47;10.80;;;;;;;18.23;100.00;99698.16;10115470;29;20064;-68
2022/09/13 18:32:02;;;;;;;17.50;12.70;;;;;;;18.17;100.00;99673.00;10134012;29;20785;-69
2022/09/13 18:37:04;;;;;;;19.20;13.65;;;;;;;17.63;100.00;99569.38;10135303;29;20072;-68
2022/09/13 18:42:05;;;;;;;20.90;13.82;;;;;;;17.97;100.00;99642.97;10135416;29;20056;-69
2022/09/13 18:47:07;;;;;;;17.63;12.70;;;;;;;17.66;100.00;99607.31;10135458;29;20088;-69
2022/09/13 18:52:09;;;;;;;15.63;10.85;;;;;;;18.09;100.00;99689.47;10136609;29;20068;-69
2022/09/13 18:57:11;;;;;;;19.60;10.48;;;;;;;18.02;100.00;99654.66;10135257;29;20045;-69
2022/09/13 19:02:11;;;;;;;28.98;17.88;;;;;;;17.67;100.00;99592.81;10137708;29;20055;-69
2022/09/13 19:07:12;;;;;;;32.67;17.83;;;;;;;18.11;100.00;99646.25;10137190;29;20398;-69
2022/09/13 19:12:13;;;;;;;31.77;16.27;;;;;;;17.85;100.00;99609.91;10137189;29;20060;-69
2022/09/13 19:17:15;;;;;;;29.20;15.18;;;;;;;18.16;100.00;99660.63;10136583;29;20071;-69
2022/09/13 19:22:16;;;;;;;14.90;11.20;;;;;;;18.16;100.00;99682.16;10136726;29;20411;-69
2022/09/13 19:27:18;;;;;;;11.82;9.77;;;;;;;17.72;100.00;99598.31;10136290;29;20049;-69
2022/09/13 19:32:19;;;;;;;13.98;10.60;;;;;;;18.16;100.00;99649.06;10135931;29;20505;-69
2022/09/13 19:37:20;;;;;;;12.57;10.07;;;;;;;17.47;100.00;99558.25;10115272;29;20118;-69
2022/09/13 19:42:21;;;;;;;11.40;10.15;;;;;;;18.05;100.00;99676.75;10111549;29;20065;-69
2022/09/13 19:47:23;;;;;;;15.07;9.68;;;;;;;17.98;100.00;99663.44;10103521;29;20048;-69
2022/09/13 19:52:25;;;;;;;16.13;10.65;;;;;;;17.95;100.00;99643.22;10136391;29;20081;-70
2022/09/13 19:57:25;;;;;;;12.65;11.45;;;;;;;18.01;100.00;99663.78;10134969;29;20052;-69
2022/09/13 20:02:26;;;;;;;18.23;11.73;;;;;;;17.94;100.00;99636.19;10135499;29;20073;-69
2022/09/13 20:07:27;;;;;;;13.93;11.30;;;;;;;17.65;100.00;99592.25;10134908;29;20044;-69
2022/09/13 20:12:28;;;;;;;16.60;12.32;;;;;;;17.94;100.00;99638.88;10134974;29;20058;-69
2022/09/13 20:17:28;;;;;;;12.95;11.55;;;;;;;17.89;100.00;99633.41;10134890;29;20075;-69
2022/09/13 20:22:29;;;;;;;12.82;11.52;;;;;;;17.95;100.00;99666.59;10134956;29;20462;-69
2022/09/13 20:27:31;;;;;;;14.00;10.95;;;;;;;17.91;100.00;99660.03;10134031;29;20048;-69
2022/09/13 20:32:32;;;;;;;15.18;10.98;;;;;;;17.49;100.00;99601.78;10134040;29;20497;-69
2022/09/13 20:37:33;;;;;;;18.45;13.43;;;;;;;17.84;100.00;99635.16;10133981;29;20172;-69
2022/09/13 20:42:34;;;;;;;17.15;11.88;;;;;;;17.91;100.00;99668.09;10134146;29;20056;-69
2022/09/13 20:47:35;;;;;;;21.92;13.07;;;;;;;17.66;100.00;99628.00;10134018;29;20045;-69
2022/09/13 20:52:36;;;;;;;14.63;12.98;;;;;;;17.96;100.00;99663.66;10133282;29;20047;-69
2022/09/13 20:57:37;;;;;;;14.65;13.00;;;;;;;18.06;100.00;99679.19;10133931;29;20060;-69
2022/09/13 21:02:38;;;;;;;16.55;12.27;;;;;;;18.00;100.00;99658.63;10132953;29;20497;-69
2022/09/13 21:12:59;;;;;;;25.25;12.50;;;;;;;17.97;100.00;99654.53;10133285;29;20080;-69
2022/09/13 21:18:00;;;;;;;22.08;13.60;;;;;;;18.05;100.00;99674.88;10133473;29;20581;-69
2022/09/13 21:23:01;;;;;;;21.65;14.90;;;;;;;18.11;100.00;99691.97;10132961;29;20135;-69
2022/09/13 21:28:02;;;;;;;20.08;13.65;;;;;;;18.02;100.00;99653.84;10133442;29;20040;-68
2022/09/13 21:33:03;;;;;;;17.05;13.68;;;;;;;18.04;100.00;99654.44;10132729;29;20045;-68
2022/09/13 21:38:04;;;;;;;19.20;13.75;;;;;;;18.01;100.00;99674.53;10133086;29;20498;-68
2022/09/13 21:43:05;;;;;;;19.00;14.32;;;;;;;18.09;100.00;99684.09;10132846;29;20040;-69
2022/09/13 21:48:06;;;;;;;17.80;14.10;;;;;;;18.16;100.00;99678.66;10133022;29;20490;-68
2022/09/13 21:53:07;;;;;;;20.50;14.80;;;;;;;18.17;100.00;99664.13;10132383;29;20047;-68
2022/09/13 21:58:09;;;;;;;17.35;14.23;;;;;;;18.12;100.00;99670.19;10131038;29;20071;-68
2022/09/13 22:03:10;;;;;;;19.45;13.65;;;;;;;18.10;100.00;99666.09;10132050;29;20045;-69
2022/09/13 22:08:11;;;;;;;14.52;12.63;;;;;;;18.10;100.00;99676.84;10132343;29;20043;-69
2022/09/13 22:13:12;;;;;;;16.42;12.48;;;;;;;17.99;100.00;99644.38;10137175;29;20056;-68
2022/09/13 22:18:12;;;;;;;14.55;11.82;;;;;;;18.05;100.00;99663.31;10138856;29;20132;-69
2022/09/13 22:23:13;;;;;;;15.40;11.50;;;;;;;18.00;100.00;99642.50;10138600;29;20108;-69
2022/09/13 22:28:14;;;;;;;13.95;11.35;;;;;;;17.98;100.00;99661.56;10138539;29;20055;-68
2022/09/13 22:33:15;;;;;;;16.30;11.35;;;;;;;17.75;100.00;99622.03;10138135;29;20050;-69
2022/09/13 22:38:16;;;;;;;13.90;10.77;;;;;;;17.54;100.00;99576.94;10138627;29;20105;-68
2022/09/13 22:43:16;;;;;;;11.13;9.95;;;;;;;17.70;100.00;99619.22;10137970;29;20051;-68
2022/09/13 22:48:21;;;;;;;15.70;9.30;;;;;;;17.76;100.00;99639.78;10138455;29;20044;-68
2022/09/13 22:53:23;;;;;;;13.48;8.98;;;;;;;17.83;100.00;99655.00;10138717;29;20422;-67
2022/09/13 22:58:24;;;;;;;13.55;9.55;;;;;;;17.77;100.00;99641.47;10137373;29;20417;-68
2022/09/13 23:03:24;;;;;;;11.25;8.88;;;;;;;17.29;100.00;99551.13;10137770;29;20056;-68
2022/09/13 23:08:26;;;;;;;15.75;8.82;;;;;;;17.46;100.00;99572.72;10136435;29;20139;-68
2022/09/13 23:13:26;;;;;;;12.68;8.85;;;;;;;17.75;100.00;99627.41;10137103;29;20105;-68
2022/09/13 23:18:27;;;;;;;17.50;9.10;;;;;;;17.72;100.00;99635.13;10136527;29;20120;-67
2022/09/13 23:23:28;;;;;;;14.20;10.20;;;;;;;17.20;100.00;99576.66;10133856;29;20048;-67
2022/09/13 23:28:29;;;;;;;17.15;9.68;;;;;;;17.44;100.00;99612.44;10136758;29;20089;-67